Afton, Minnesota
Current Conditions -  °F | °C
As of 2:51 PM on Tuesday 25 Nov 2014 (Local Time) from K21D Reporting Station
Overcast Overcast  
Wind Chill: 16°   Ceiling: 5500
Heat Index: 23°   Visibility: 10mi
Dew Point: 16°   Wind: 6mph
Humidity: 74%   Direction: 180°S
Pressure: 30.05"   Gusts: NA
Location:  44.9°N, 92.78°W
Report Text: K21D 252051Z AUTO 18005KT 10SM SCT035 SCT043 OVC055 M05/M09 A3005 RMK AO2
Loading
Personal Weather Stations






























Interactive Weather Map New forecast layout! Learn more

10-Day Weather Forecast

Advertisements
Track Severe Weather on mobile